createdAt,value
2018-12-27T00:00:35.795Z,83.06
2018-12-27T00:03:04.367Z,83.29
2018-12-27T00:05:32.934Z,83.77
2018-12-27T00:08:01.165Z,82.96
2018-12-27T00:10:29.696Z,84.07
2018-12-27T00:12:58.270Z,83.06
2018-12-27T00:15:26.870Z,82.67
2018-12-27T00:17:55.111Z,82.68
2018-12-27T00:20:23.621Z,82.40
2018-12-27T00:22:52.196Z,82.20
2018-12-27T00:25:21.601Z,82.26
2018-12-27T00:27:50.184Z,82.88
2018-12-27T00:30:19.075Z,83.44
2018-12-27T00:32:47.967Z,83.44
2018-12-27T00:35:16.955Z,83.38
2018-12-27T00:37:45.838Z,83.76
2018-12-27T00:40:14.386Z,83.70
2018-12-27T00:42:43.212Z,84.17
2018-12-27T00:45:11.777Z,84.83
2018-12-27T00:47:42.933Z,83.86
2018-12-27T00:50:11.852Z,85.03
2018-12-27T00:52:40.721Z,85.36
2018-12-27T00:55:09.670Z,85.04
2018-12-27T00:57:38.506Z,85.09
2018-12-27T01:00:07.550Z,84.53
2018-12-27T01:02:36.875Z,83.70
2018-12-27T01:05:07.118Z,83.40
2018-12-27T01:07:36.419Z,83.21
2018-12-27T01:10:04.990Z,83.85
2018-12-27T01:12:33.890Z,83.60
2018-12-27T01:15:02.770Z,84.18
2018-12-27T01:17:31.657Z,84.77
2018-12-27T01:20:00.573Z,85.09
2018-12-27T01:22:29.441Z,85.87
2018-12-27T01:24:58.319Z,86.51
2018-12-27T01:27:27.230Z,86.90
2018-12-27T01:29:56.123Z,86.43
2018-12-27T01:32:25.019Z,86.63
2018-12-27T01:34:54.097Z,86.27
2018-12-27T01:37:22.997Z,86.10
2018-12-27T01:39:51.552Z,86.04
2018-12-27T01:42:20.088Z,85.82
2018-12-27T01:44:48.636Z,85.72
2018-12-27T01:47:17.183Z,86.35
2018-12-27T01:49:45.732Z,86.26
2018-12-27T01:52:14.582Z,86.34
2018-12-27T01:54:44.596Z,85.34
2018-12-27T01:57:13.502Z,85.79
2018-12-27T01:59:42.379Z,86.15
2018-12-27T02:02:11.075Z,86.29
2018-12-27T02:04:39.951Z,86.85
2018-12-27T02:07:08.943Z,86.46
2018-12-27T02:09:37.557Z,87.01
2018-12-27T02:12:06.421Z,86.60
2018-12-27T02:14:35.306Z,87.16
2018-12-27T02:17:04.197Z,87.55
2018-12-27T02:19:32.822Z,86.56
2018-12-27T02:22:01.769Z,86.76
2018-12-27T02:24:31.477Z,87.41
2018-12-27T02:27:02.612Z,87.56
2018-12-27T02:29:31.198Z,87.20
2018-12-27T02:32:00.101Z,87.17
2018-12-27T02:34:28.990Z,87.23
2018-12-27T02:36:57.540Z,86.68
2018-12-27T02:39:26.080Z,86.15
2018-12-27T02:41:54.956Z,86.85
2018-12-27T02:44:23.827Z,87.47
2018-12-27T02:46:52.728Z,87.94
2018-12-27T02:49:21.521Z,87.75
2018-12-27T02:51:50.408Z,87.89
2018-12-27T02:54:18.947Z,88.38
2018-12-27T02:56:47.889Z,88.31
2018-12-27T02:59:16.761Z,88.68
2018-12-27T03:01:45.287Z,88.69
2018-12-27T03:04:14.134Z,88.60
2018-12-27T03:06:43.018Z,88.88
2018-12-27T03:09:11.927Z,88.14
2018-12-27T03:11:40.801Z,88.40
2018-12-27T03:14:09.697Z,88.29
2018-12-27T03:16:38.600Z,88.47
2018-12-27T03:19:07.143Z,88.71
2018-12-27T03:21:36.055Z,89.03
2018-12-27T03:24:04.596Z,89.54
2018-12-27T03:26:33.518Z,89.62
2018-12-27T03:29:02.141Z,89.55
2018-12-27T03:31:31.269Z,89.21
2018-12-27T03:33:59.799Z,89.15
2018-12-27T03:36:28.354Z,89.04
2018-12-27T03:38:58.367Z,89.11
2018-12-27T03:41:27.276Z,89.75
2018-12-27T03:43:56.159Z,89.85
2018-12-27T03:46:25.053Z,89.70
2018-12-27T03:48:53.602Z,90.00
2018-12-27T03:51:22.534Z,89.85
2018-12-27T03:53:51.074Z,90.30
2018-12-27T03:56:19.990Z,90.09
2018-12-27T03:58:49.104Z,90.36
2018-12-27T04:01:17.995Z,90.50
2018-12-27T04:03:46.887Z,91.02
2018-12-27T04:06:15.758Z,91.20
2018-12-27T04:08:44.638Z,90.92
2018-12-27T04:11:13.209Z,91.06
2018-12-27T04:13:42.119Z,90.90
2018-12-27T04:16:10.702Z,91.00
2018-12-27T04:18:39.288Z,91.61
2018-12-27T04:21:07.518Z,91.32
2018-12-27T04:23:35.746Z,91.31
2018-12-27T04:26:04.306Z,91.44
2018-12-27T04:28:32.897Z,91.30
2018-12-27T04:31:01.480Z,91.16
2018-12-27T04:33:29.963Z,90.87
2018-12-27T04:35:58.196Z,91.05
2018-12-27T04:38:26.727Z,91.37
2018-12-27T04:40:55.327Z,91.30
2018-12-27T04:43:23.682Z,91.11
2018-12-27T04:45:52.250Z,91.31
2018-12-27T04:48:20.746Z,91.45
2018-12-27T04:50:49.322Z,90.98
2018-12-27T04:53:17.548Z,91.40
2018-12-27T04:55:46.076Z,91.34
2018-12-27T04:58:14.658Z,91.36
2018-12-27T05:00:42.908Z,91.19
2018-12-27T05:03:11.451Z,91.26
2018-12-27T05:05:40.020Z,91.71
2018-12-27T05:08:08.597Z,91.87
2018-12-27T05:10:37.082Z,91.62
2018-12-27T05:13:05.299Z,91.45
2018-12-27T05:15:33.819Z,91.28
2018-12-27T05:18:02.416Z,91.83
2018-12-27T05:20:31.186Z,92.32
2018-12-27T05:22:59.765Z,92.23
2018-12-27T05:25:28.347Z,92.04
2018-12-27T05:27:56.932Z,92.21
2018-12-27T05:30:25.415Z,92.35
2018-12-27T05:32:53.993Z,92.10
2018-12-27T05:35:22.576Z,91.46
2018-12-27T05:37:50.774Z,91.78
2018-12-27T05:40:18.984Z,91.62
2018-12-27T05:42:47.507Z,91.79
2018-12-27T05:45:15.803Z,92.26
2018-12-27T05:47:44.364Z,91.75
2018-12-27T05:50:12.746Z,92.09
2018-12-27T05:52:41.331Z,91.65
2018-12-27T05:55:11.031Z,91.38
2018-12-27T05:57:39.613Z,91.47
2018-12-27T06:00:07.832Z,91.60
2018-12-27T06:02:36.378Z,91.57
2018-12-27T06:05:04.980Z,91.31
2018-12-27T06:07:34.980Z,91.84
2018-12-27T06:10:03.183Z,92.21
2018-12-27T06:12:31.423Z,92.33
2018-12-27T06:14:59.995Z,92.36
2018-12-27T06:17:28.480Z,92.78
2018-12-27T06:19:57.060Z,92.47
2018-12-27T06:22:25.272Z,92.11
2018-12-27T06:24:56.181Z,91.82
2018-12-27T06:27:24.770Z,92.25
2018-12-27T06:29:53.338Z,91.95
2018-12-27T06:32:21.919Z,92.39
2018-12-27T06:34:50.531Z,92.73
2018-12-27T06:37:19.123Z,92.74
2018-12-27T06:39:49.581Z,92.32
2018-12-27T06:42:18.093Z,92.58
2018-12-27T06:44:46.692Z,92.21
2018-12-27T06:47:17.959Z,92.11
2018-12-27T06:49:46.199Z,92.10
2018-12-27T06:52:14.781Z,92.09
2018-12-27T06:54:43.285Z,91.74
2018-12-27T06:57:11.844Z,91.43
2018-12-27T06:59:40.435Z,92.20
2018-12-27T07:02:09.005Z,92.60
2018-12-27T07:04:37.205Z,92.65
2018-12-27T07:07:07.305Z,92.31
2018-12-27T07:09:35.522Z,92.54
2018-12-27T07:12:04.063Z,92.21
2018-12-27T07:14:32.249Z,91.88
2018-12-27T07:17:00.808Z,91.64
2018-12-27T07:19:29.431Z,91.45
2018-12-27T07:21:57.970Z,91.42
2018-12-27T07:24:26.560Z,91.43
2018-12-27T07:26:55.162Z,91.31
2018-12-27T07:29:23.727Z,91.72
2018-12-27T07:31:51.921Z,91.46
2018-12-27T07:34:20.157Z,91.73
2018-12-27T07:36:48.765Z,91.23
2018-12-27T07:39:17.341Z,91.11
2018-12-27T07:41:45.957Z,90.91
2018-12-27T07:44:14.520Z,91.08
2018-12-27T07:46:42.743Z,91.27
2018-12-27T07:49:11.256Z,91.23
2018-12-27T07:51:39.873Z,91.23
2018-12-27T07:54:08.433Z,91.00
2018-12-27T07:56:37.016Z,90.87
2018-12-27T07:59:05.588Z,90.74
2018-12-27T08:01:33.907Z,90.63
2018-12-27T08:04:02.460Z,90.59
2018-12-27T08:06:31.032Z,90.23
2018-12-27T08:08:59.643Z,89.73
2018-12-27T08:11:28.197Z,89.92
2018-12-27T08:13:56.778Z,90.23
2018-12-27T08:16:25.799Z,89.81
2018-12-27T08:18:53.987Z,89.00
2018-12-27T08:21:22.218Z,89.82
2018-12-27T08:23:53.979Z,89.72
2018-12-27T08:26:23.066Z,89.28
2018-12-27T08:28:52.561Z,89.56
2018-12-27T08:31:21.060Z,89.77
2018-12-27T08:33:49.643Z,89.35
2018-12-27T08:36:17.865Z,89.42
2018-12-27T08:38:46.407Z,89.62
2018-12-27T08:41:14.989Z,88.94
2018-12-27T08:43:43.562Z,88.63
2018-12-27T08:46:12.168Z,89.25
2018-12-27T08:48:40.835Z,88.88
2018-12-27T08:51:09.418Z,89.45
2018-12-27T08:53:37.997Z,89.34
2018-12-27T08:56:06.596Z,89.18
2018-12-27T08:58:35.161Z,87.97
2018-12-27T09:01:03.368Z,87.47
2018-12-27T09:03:31.571Z,87.23
2018-12-27T09:06:00.197Z,86.90
2018-12-27T09:08:28.811Z,86.78
2018-12-27T09:10:57.354Z,87.21
2018-12-27T09:13:25.942Z,87.53
2018-12-27T09:15:54.525Z,87.80
2018-12-27T09:18:23.018Z,87.52
2018-12-27T09:20:51.219Z,86.29
2018-12-27T09:23:19.753Z,86.43
2018-12-27T09:25:48.341Z,86.12
2018-12-27T09:28:16.535Z,85.39
2018-12-27T09:30:45.094Z,84.79
2018-12-27T09:33:13.714Z,84.12
2018-12-27T09:35:42.290Z,84.08
2018-12-27T09:38:10.859Z,83.99
2018-12-27T09:40:39.422Z,82.88
2018-12-27T09:43:07.618Z,83.84
2018-12-27T09:45:36.183Z,83.30
2018-12-27T09:48:04.760Z,83.16
2018-12-27T09:50:32.985Z,83.76
2018-12-27T09:53:01.548Z,83.93
2018-12-27T09:55:29.751Z,84.07
2018-12-27T09:57:59.507Z,83.27
2018-12-27T10:00:28.090Z,83.46
2018-12-27T10:02:56.319Z,83.65
2018-12-27T10:05:24.533Z,83.55
2018-12-27T10:07:57.568Z,82.61
2018-12-27T10:10:24.704Z,78.57
2018-12-27T10:12:52.901Z,76.26
2018-12-27T10:15:21.425Z,75.28
2018-12-27T10:17:49.620Z,76.92
2018-12-27T10:20:17.835Z,76.80
2018-12-27T10:22:46.410Z,77.17
2018-12-27T10:25:14.678Z,77.85
2018-12-27T10:27:43.120Z,77.14
2018-12-27T10:30:11.310Z,75.85
2018-12-27T10:32:39.525Z,75.69
2018-12-27T10:35:08.590Z,73.83
2018-12-27T10:37:37.134Z,76.35
2018-12-27T10:40:08.600Z,74.43
2018-12-27T10:42:37.167Z,75.51
2018-12-27T10:45:08.072Z,76.34
2018-12-27T10:47:36.698Z,76.58
2018-12-27T10:50:08.170Z,77.10
2018-12-27T10:52:36.683Z,77.28
2018-12-27T10:55:06.962Z,76.51
2018-12-27T10:57:35.539Z,75.43
2018-12-27T11:00:06.650Z,76.45
2018-12-27T11:02:35.160Z,75.90
2018-12-27T11:05:03.943Z,76.07
2018-12-27T11:07:32.152Z,73.61
2018-12-27T11:10:00.370Z,74.72
2018-12-27T11:12:29.088Z,76.90
2018-12-27T11:14:57.658Z,73.92
2018-12-27T11:17:25.922Z,75.09
2018-12-27T11:19:54.398Z,76.90
2018-12-27T11:22:22.997Z,75.63
2018-12-27T11:24:51.656Z,76.72
2018-12-27T11:27:20.256Z,75.20
2018-12-27T11:29:48.470Z,76.21
2018-12-27T11:32:17.023Z,75.09
2018-12-27T11:34:45.241Z,74.77
2018-12-27T11:37:13.767Z,74.54
2018-12-27T11:39:42.350Z,73.69
2018-12-27T11:42:10.577Z,70.79
2018-12-27T11:44:39.091Z,73.44
2018-12-27T11:47:07.301Z,71.81
2018-12-27T11:49:35.855Z,72.15
2018-12-27T11:52:04.367Z,68.96
2018-12-27T11:54:32.592Z,71.05
2018-12-27T11:57:00.776Z,72.46
2018-12-27T11:59:29.404Z,70.75
2018-12-27T12:01:58.051Z,71.78
2018-12-27T12:04:26.641Z,74.38
2018-12-27T12:06:55.120Z,74.05
2018-12-27T12:09:23.729Z,73.39
2018-12-27T12:11:52.281Z,73.05
2018-12-27T12:14:20.467Z,74.29
2018-12-27T12:16:49.145Z,74.20
2018-12-27T12:19:17.723Z,72.94
2018-12-27T12:21:46.405Z,73.47
2018-12-27T12:24:14.636Z,74.36
2018-12-27T12:26:42.869Z,73.32
2018-12-27T12:29:11.091Z,71.98
2018-12-27T12:31:39.616Z,69.21
2018-12-27T12:34:08.023Z,72.38
2018-12-27T12:36:36.291Z,73.05
2018-12-27T12:39:05.986Z,70.39
2018-12-27T12:41:34.546Z,71.64
2018-12-27T12:44:03.546Z,71.89
2018-12-27T12:46:32.148Z,71.12
2018-12-27T12:49:02.350Z,71.48
2018-12-27T12:51:32.989Z,70.68
2018-12-27T12:54:01.255Z,69.76
2018-12-27T12:56:29.999Z,71.32
2018-12-27T12:58:58.534Z,72.40
2018-12-27T13:01:28.255Z,73.05
2018-12-27T13:03:56.826Z,70.16
2018-12-27T13:06:25.022Z,68.58
2018-12-27T13:08:53.574Z,69.21
2018-12-27T13:11:22.142Z,68.62
2018-12-27T13:13:50.766Z,66.49
2018-12-27T13:16:18.972Z,65.46
2018-12-27T13:18:47.558Z,65.94
2018-12-27T13:21:15.790Z,67.62
2018-12-27T13:23:44.368Z,66.88
2018-12-27T13:26:13.847Z,66.07
2018-12-27T13:28:42.045Z,64.36
2018-12-27T13:31:10.605Z,68.12
2018-12-27T13:33:39.205Z,70.22
2018-12-27T13:36:07.773Z,72.10
2018-12-27T13:38:35.990Z,70.85
2018-12-27T13:41:04.177Z,71.01
2018-12-27T13:43:32.807Z,72.50
2018-12-27T13:46:01.387Z,73.57
2018-12-27T13:48:29.973Z,72.09
2018-12-27T13:50:58.176Z,72.04
2018-12-27T13:53:26.750Z,72.41
2018-12-27T13:55:54.976Z,72.83
2018-12-27T13:58:23.203Z,73.90
2018-12-27T14:00:51.754Z,70.81
2018-12-27T14:03:20.339Z,69.19
2018-12-27T14:18:35.232Z,62.00
2018-12-27T14:21:03.691Z,65.56
2018-12-27T14:23:32.292Z,68.37
2018-12-27T14:26:00.785Z,75.04
2018-12-27T14:28:29.046Z,78.03
2018-12-27T14:30:57.542Z,72.90
2018-12-27T14:33:25.779Z,79.44
2018-12-27T14:35:54.286Z,76.92
2018-12-27T14:38:22.855Z,74.02
2018-12-27T14:40:51.101Z,73.64
2018-12-27T14:43:19.585Z,73.69
2018-12-27T14:45:47.794Z,74.15
2018-12-27T14:48:16.021Z,73.25
2018-12-27T14:50:44.483Z,74.11
2018-12-27T14:53:12.961Z,74.49
2018-12-27T14:55:41.180Z,76.01
2018-12-27T14:58:09.417Z,76.70
2018-12-27T15:00:39.106Z,77.86
2018-12-27T15:03:07.591Z,78.08
2018-12-27T15:05:36.096Z,79.17
2018-12-27T15:08:04.543Z,76.81
2018-12-27T15:10:33.094Z,77.34
2018-12-27T15:13:01.599Z,77.99
2018-12-27T15:15:30.067Z,78.57
2018-12-27T15:17:58.620Z,78.98
2018-12-27T15:20:27.088Z,78.96
2018-12-27T15:22:55.291Z,79.64
2018-12-27T15:25:23.792Z,80.42
2018-12-27T15:27:52.314Z,80.97
2018-12-27T15:30:20.836Z,81.13
2018-12-27T15:32:49.047Z,81.66
2018-12-27T15:35:17.495Z,82.16
2018-12-27T15:37:45.987Z,82.54
2018-12-27T15:40:14.442Z,82.44
2018-12-27T15:42:43.021Z,82.36
2018-12-27T15:45:11.492Z,82.96
2018-12-27T15:47:40.046Z,82.69
2018-12-27T15:50:08.782Z,83.39
2018-12-27T15:52:37.285Z,83.84
2018-12-27T15:55:05.470Z,84.04
2018-12-27T15:57:33.995Z,84.52
2018-12-27T16:00:02.546Z,85.23
2018-12-27T16:02:30.740Z,85.56
2018-12-27T16:04:59.230Z,86.18
2018-12-27T16:07:27.438Z,86.22
2018-12-27T16:09:55.971Z,86.60
2018-12-27T16:12:24.495Z,87.01
2018-12-27T16:14:53.020Z,87.17
2018-12-27T16:17:21.515Z,87.55
2018-12-27T16:19:50.017Z,87.75
2018-12-27T16:22:18.488Z,87.91
2018-12-27T16:24:46.969Z,88.11
2018-12-27T16:27:15.467Z,88.07
2018-12-27T16:29:43.684Z,87.84
2018-12-27T16:32:12.162Z,87.86
2018-12-27T16:34:40.646Z,87.81
2018-12-27T16:37:09.383Z,88.03
2018-12-27T16:39:37.938Z,87.35
2018-12-27T16:42:06.432Z,87.60
2018-12-27T16:44:34.709Z,87.64
2018-12-27T16:47:03.224Z,88.35
2018-12-27T16:49:31.771Z,88.44
2018-12-27T16:52:00.321Z,88.69
2018-12-27T16:54:28.732Z,89.02
2018-12-27T16:56:57.297Z,89.23
2018-12-27T16:59:25.803Z,89.17
2018-12-27T17:01:54.336Z,89.38
2018-12-27T17:04:22.563Z,89.43
2018-12-27T17:06:51.068Z,89.29
2018-12-27T17:09:19.311Z,89.14
2018-12-27T17:11:47.796Z,89.32
2018-12-27T17:14:16.321Z,89.48
2018-12-27T17:16:44.506Z,89.51
2018-12-27T17:19:13.594Z,89.70
2018-12-27T17:21:41.786Z,89.99
2018-12-27T17:24:10.325Z,90.26
2018-12-27T17:26:38.775Z,90.53
2018-12-27T17:29:07.052Z,90.33
2018-12-27T17:31:35.559Z,90.10
2018-12-27T17:34:04.049Z,89.92
2018-12-27T17:36:32.565Z,89.56
2018-12-27T17:39:00.779Z,89.81
2018-12-27T17:41:29.279Z,89.63
2018-12-27T17:43:57.642Z,89.89
2018-12-27T17:46:26.300Z,89.98
2018-12-27T17:48:54.781Z,89.98
2018-12-27T17:51:23.245Z,90.37
2018-12-27T17:53:51.475Z,90.24
2018-12-27T17:56:19.944Z,90.63
2018-12-27T17:58:48.435Z,90.41
2018-12-27T18:01:16.846Z,90.69
2018-12-27T18:03:45.336Z,91.00
2018-12-27T18:06:13.570Z,91.28
2018-12-27T18:08:42.083Z,91.43
2018-12-27T18:11:10.313Z,91.51
2018-12-27T18:13:38.802Z,90.82
2018-12-27T18:16:07.117Z,90.19
2018-12-27T18:18:35.691Z,90.33
2018-12-27T18:21:04.213Z,90.38
2018-12-27T18:23:32.719Z,90.43
2018-12-27T18:26:02.821Z,90.76
2018-12-27T18:28:32.108Z,90.96
2018-12-27T18:31:00.583Z,90.86
2018-12-27T18:33:29.082Z,90.99
2018-12-27T18:35:57.376Z,91.10
2018-12-27T18:38:25.672Z,91.38
2018-12-27T18:40:54.290Z,91.19
2018-12-27T18:43:22.829Z,91.17
2018-12-27T18:45:51.311Z,91.23
2018-12-27T18:48:19.513Z,91.44
2018-12-27T18:50:47.991Z,91.11
2018-12-27T18:53:16.255Z,91.64
2018-12-27T18:55:45.069Z,91.71
2018-12-27T18:58:13.668Z,91.52
2018-12-27T19:00:42.200Z,91.55
2018-12-27T19:03:10.708Z,91.89
2018-12-27T19:05:38.909Z,92.09
2018-12-27T19:08:07.445Z,91.90
2018-12-27T19:10:35.968Z,92.03
2018-12-27T19:13:06.394Z,92.18
2018-12-27T19:15:37.882Z,91.44
2018-12-27T19:18:12.206Z,91.37
2018-12-27T19:20:43.108Z,91.53
2018-12-27T19:23:13.753Z,91.07
2018-12-27T19:25:42.216Z,91.08
2018-12-27T19:28:10.711Z,91.41
2018-12-27T19:30:39.323Z,91.50
2018-12-27T19:33:07.847Z,91.44
2018-12-27T19:35:38.004Z,91.47
2018-12-27T19:38:06.535Z,91.64
2018-12-27T19:40:34.758Z,91.68
2018-12-27T19:43:03.224Z,91.79
2018-12-27T19:45:31.742Z,91.81
2018-12-27T19:48:00.652Z,91.69
2018-12-27T19:50:29.159Z,92.03
2018-12-27T19:52:57.737Z,92.15
2018-12-27T19:55:26.778Z,92.28
2018-12-27T19:57:55.278Z,92.44
2018-12-27T20:00:23.786Z,92.41
2018-12-27T20:02:52.014Z,92.51
2018-12-27T20:05:20.302Z,92.56
2018-12-27T20:07:48.853Z,92.66
2018-12-27T20:10:17.347Z,92.25
2018-12-27T20:12:45.831Z,91.51
2018-12-27T20:15:14.098Z,91.17
2018-12-27T20:17:42.632Z,91.39
2018-12-27T20:20:13.548Z,91.76
2018-12-27T20:22:42.106Z,92.20
2018-12-27T20:25:10.321Z,92.23
2018-12-27T20:27:38.507Z,92.46
2018-12-27T20:30:08.554Z,92.66
2018-12-27T20:32:37.042Z,92.88
2018-12-27T20:35:05.890Z,92.62
2018-12-27T20:37:34.420Z,92.67
2018-12-27T20:40:03.478Z,92.83
2018-12-27T20:42:32.007Z,92.82
2018-12-27T20:45:00.614Z,92.97
2018-12-27T20:47:28.863Z,92.98
2018-12-27T20:49:57.366Z,93.02
2018-12-27T20:52:27.527Z,92.88
2018-12-27T20:54:55.737Z,92.81
2018-12-27T20:57:24.301Z,92.78
2018-12-27T20:59:52.788Z,92.08
2018-12-27T21:02:21.012Z,92.35
2018-12-27T21:04:49.504Z,92.33
2018-12-27T21:07:17.745Z,92.20
2018-12-27T21:09:46.415Z,92.39
2018-12-27T21:12:15.628Z,92.20
2018-12-27T21:14:44.706Z,92.34
2018-12-27T21:17:13.194Z,92.31
2018-12-27T21:19:41.782Z,92.33
2018-12-27T21:22:10.274Z,92.40
2018-12-27T21:24:38.798Z,92.52
2018-12-27T21:27:07.327Z,92.63
2018-12-27T21:29:35.796Z,92.81
2018-12-27T21:32:04.286Z,92.94
2018-12-27T21:34:33.011Z,93.04
2018-12-27T21:37:02.207Z,93.11
2018-12-27T21:39:30.427Z,92.93
2018-12-27T21:41:58.760Z,93.07
2018-12-27T21:44:27.276Z,92.80
2018-12-27T21:46:55.474Z,92.43
2018-12-27T21:49:24.055Z,92.48
2018-12-27T21:51:53.303Z,92.96
2018-12-27T21:54:21.559Z,93.08
2018-12-27T21:56:50.039Z,92.86
2018-12-27T21:59:18.591Z,92.56
2018-12-27T22:01:47.406Z,92.71
2018-12-27T22:04:17.545Z,92.67
2018-12-27T22:06:46.039Z,92.79
2018-12-27T22:09:14.295Z,92.87
2018-12-27T22:11:42.817Z,92.57
2018-12-27T22:14:11.079Z,92.99
2018-12-27T22:16:39.639Z,93.24
2018-12-27T22:19:08.141Z,92.89
2018-12-27T22:21:36.357Z,92.55
2018-12-27T22:24:04.863Z,92.69
2018-12-27T22:26:33.094Z,92.93
2018-12-27T22:29:01.606Z,92.94
2018-12-27T22:31:29.814Z,92.94
2018-12-27T22:33:58.129Z,93.04
2018-12-27T22:36:26.647Z,92.85
2018-12-27T22:38:55.141Z,92.95
2018-12-27T22:41:25.247Z,93.25
2018-12-27T22:43:53.714Z,93.11
2018-12-27T22:46:22.339Z,93.00
2018-12-27T22:48:50.595Z,93.22
2018-12-27T22:51:19.068Z,93.56
2018-12-27T22:53:47.571Z,93.56
2018-12-27T22:56:16.046Z,93.69
2018-12-27T22:58:44.534Z,93.77
2018-12-27T23:01:13.060Z,93.84
2018-12-27T23:03:41.581Z,94.01
2018-12-27T23:06:10.081Z,93.88
2018-12-27T23:08:43.088Z,93.99
2018-12-27T23:11:08.805Z,93.96
2018-12-27T23:13:37.066Z,93.98
2018-12-27T23:16:05.548Z,93.86
2018-12-27T23:18:34.062Z,93.71
2018-12-27T23:21:02.578Z,93.77
2018-12-27T23:23:31.534Z,93.85
2018-12-27T23:26:00.036Z,94.11
2018-12-27T23:28:28.566Z,93.89
2018-12-27T23:30:57.102Z,93.83
2018-12-27T23:33:25.656Z,93.78
2018-12-27T23:35:54.765Z,93.86
2018-12-27T23:38:23.247Z,94.16
2018-12-27T23:40:51.723Z,94.22
2018-12-27T23:43:20.228Z,94.30
2018-12-27T23:45:48.476Z,93.88
2018-12-27T23:48:16.970Z,93.98
2018-12-27T23:50:46.712Z,94.05
2018-12-27T23:53:15.238Z,93.98
2018-12-27T23:55:43.490Z,94.00
2018-12-27T23:58:11.928Z,94.08
